Defoe, Kentucky
Current Conditions -  °F | °C
As of 5:53 AM on Sunday 23 Nov 2014 (Local Time) from KFFT Reporting Station
Broken Clouds Broken Clouds  
Wind Chill: 50°   Ceiling: 3900
Heat Index: 50°   Visibility: 10mi
Dew Point: 39°   Wind: 5mph
Humidity: 66%   Direction: 150°SSE
Pressure: 29.98"   Gusts: NA
Location:  38.369°N, 85.0622°W
Report Text: KFFT 231053Z AUTO 15004KT 10SM BKN039 BKN046 BKN060 10/04 A2998 RMK AO2 SLP154 T01000039
Loading
Personal Weather Stations






























Interactive Weather Map New forecast layout! Learn more

10-Day Weather Forecast

Advertisements
Track Severe Weather on mobile